createdAt,value
2019-03-17T00:00:59.810Z,5.20
2019-03-17T00:02:04.004Z,4.80
2019-03-17T00:03:08.205Z,5.75
2019-03-17T00:04:12.505Z,4.83
2019-03-17T00:05:16.619Z,4.50
2019-03-17T00:06:20.934Z,4.78
2019-03-17T00:07:25.148Z,4.33
2019-03-17T00:08:29.481Z,4.65
2019-03-17T00:09:33.715Z,3.65
2019-03-17T00:10:37.912Z,4.10
2019-03-17T00:11:42.031Z,4.28
2019-03-17T00:12:46.360Z,3.70
2019-03-17T00:13:50.559Z,4.35
2019-03-17T00:15:04.574Z,3.90
2019-03-17T00:16:00.837Z,4.33
2019-03-17T00:17:05.089Z,3.90
2019-03-17T00:18:09.421Z,3.85
2019-03-17T00:19:13.751Z,3.45
2019-03-17T00:20:17.938Z,3.40
2019-03-17T00:21:22.180Z,4.17
2019-03-17T00:22:26.511Z,4.30
2019-03-17T00:23:30.865Z,3.25
2019-03-17T00:24:35.232Z,3.60
2019-03-17T00:25:39.399Z,4.10
2019-03-17T00:26:43.568Z,3.80
2019-03-17T00:27:47.835Z,3.60
2019-03-17T00:28:52.044Z,3.30
2019-03-17T00:29:56.196Z,3.15
2019-03-17T00:31:00.360Z,3.27
2019-03-17T00:32:04.635Z,3.30
2019-03-17T00:33:09.015Z,3.35
2019-03-17T00:34:13.161Z,3.35
2019-03-17T00:35:17.276Z,3.40
2019-03-17T00:36:21.467Z,3.20
2019-03-17T00:37:25.739Z,3.90
2019-03-17T00:38:29.939Z,3.20
2019-03-17T00:39:34.180Z,4.05
2019-03-17T00:40:38.499Z,3.27
2019-03-17T00:41:42.839Z,3.33
2019-03-17T00:42:47.077Z,3.65
2019-03-17T00:43:51.306Z,3.50
2019-03-17T00:44:55.517Z,3.70
2019-03-17T00:45:59.873Z,3.10
2019-03-17T00:47:04.167Z,3.20
2019-03-17T00:48:08.253Z,3.72
2019-03-17T00:49:12.539Z,3.90
2019-03-17T00:50:16.741Z,3.98
2019-03-17T00:51:21.043Z,3.30
2019-03-17T00:52:25.284Z,3.40
2019-03-17T00:53:29.403Z,3.42
2019-03-17T00:54:33.603Z,3.40
2019-03-17T00:55:37.810Z,3.37
2019-03-17T00:56:42.022Z,3.40
2019-03-17T00:57:46.181Z,3.42
2019-03-17T00:58:50.535Z,3.60
2019-03-17T00:59:54.700Z,2.87
2019-03-17T01:00:59.019Z,3.30
2019-03-17T01:02:03.325Z,3.00
2019-03-17T01:03:07.481Z,3.67
2019-03-17T01:04:11.671Z,3.22
2019-03-17T01:05:15.829Z,3.42
2019-03-17T01:06:20.046Z,3.30
2019-03-17T01:07:24.302Z,3.02
2019-03-17T01:08:28.636Z,3.00
2019-03-17T01:09:32.887Z,3.00
2019-03-17T01:10:37.200Z,2.67
2019-03-17T01:11:41.479Z,2.90
2019-03-17T01:12:45.707Z,2.67
2019-03-17T01:13:50.370Z,2.25
2019-03-17T01:14:54.564Z,2.77
2019-03-17T01:15:58.904Z,3.15
2019-03-17T01:17:03.274Z,3.00
2019-03-17T01:18:07.499Z,3.00
2019-03-17T01:19:12.047Z,3.12
2019-03-17T01:20:16.217Z,2.90
2019-03-17T01:21:20.783Z,2.80
2019-03-17T01:22:24.985Z,2.92
2019-03-17T01:23:29.135Z,3.12
2019-03-17T01:24:33.341Z,2.90
2019-03-17T01:25:37.629Z,2.55
2019-03-17T01:26:41.899Z,2.92
2019-03-17T01:27:46.246Z,3.22
2019-03-17T01:28:50.401Z,3.60
2019-03-17T01:29:57.410Z,3.02
2019-03-17T01:31:00.759Z,3.92
2019-03-17T01:32:04.994Z,3.50
2019-03-17T01:33:09.307Z,2.70
2019-03-17T01:34:13.454Z,2.90
2019-03-17T01:35:17.942Z,3.15
2019-03-17T01:36:22.056Z,3.08
2019-03-17T01:37:27.355Z,3.10
2019-03-17T01:38:31.741Z,3.37
2019-03-17T01:39:35.881Z,2.90
2019-03-17T01:40:40.165Z,3.27
2019-03-17T01:41:44.513Z,3.08
2019-03-17T01:42:49.084Z,3.12
2019-03-17T01:43:53.249Z,2.70
2019-03-17T01:44:57.499Z,2.77
2019-03-17T01:46:01.699Z,3.60
2019-03-17T01:47:05.943Z,2.98
2019-03-17T01:48:10.210Z,3.20
2019-03-17T01:50:25.925Z,3.15
2019-03-17T01:51:30.166Z,3.30
2019-03-17T01:52:34.285Z,4.22
2019-03-17T01:53:38.555Z,3.55
2019-03-17T01:54:42.789Z,3.37
2019-03-17T01:55:46.967Z,3.77
2019-03-17T01:56:51.460Z,3.45
2019-03-17T01:57:56.156Z,2.92
2019-03-17T01:59:00.322Z,3.40
2019-03-17T02:00:04.899Z,3.20
2019-03-17T02:01:11.750Z,3.75
2019-03-17T02:02:15.273Z,3.83
2019-03-17T02:03:19.522Z,3.22
2019-03-17T02:04:23.678Z,3.77
2019-03-17T02:05:27.909Z,3.65
2019-03-17T02:06:32.173Z,3.40
2019-03-17T02:07:36.409Z,3.08
2019-03-17T02:08:40.708Z,4.05
2019-03-17T02:09:44.909Z,3.60
2019-03-17T02:10:49.097Z,3.15
2019-03-17T02:11:53.289Z,3.67
2019-03-17T02:12:57.493Z,3.37
2019-03-17T02:14:01.784Z,3.05
2019-03-17T02:15:07.052Z,3.30
2019-03-17T02:16:11.222Z,3.50
2019-03-17T02:17:15.504Z,3.85
2019-03-17T02:18:19.668Z,3.27
2019-03-17T02:19:23.939Z,3.37
2019-03-17T02:20:28.087Z,3.62
2019-03-17T02:21:32.300Z,3.22
2019-03-17T02:22:36.671Z,3.80
2019-03-17T02:23:40.797Z,3.55
2019-03-17T02:24:44.965Z,3.50
2019-03-17T02:25:49.219Z,3.62
2019-03-17T02:26:53.479Z,3.55
2019-03-17T02:27:57.986Z,3.80
2019-03-17T02:29:02.155Z,4.10
2019-03-17T02:30:07.177Z,2.90
2019-03-17T02:31:11.408Z,3.95
2019-03-17T02:32:15.604Z,4.12
2019-03-17T02:33:19.973Z,3.70
2019-03-17T02:34:24.186Z,3.65
2019-03-17T02:35:38.556Z,4.05
2019-03-17T02:36:34.455Z,4.45
2019-03-17T02:37:38.814Z,3.87
2019-03-17T02:38:42.940Z,4.58
2019-03-17T02:39:47.194Z,4.15
2019-03-17T02:40:51.365Z,3.95
2019-03-17T02:41:55.525Z,4.00
2019-03-17T02:42:59.850Z,3.55
2019-03-17T02:44:04.211Z,3.67
2019-03-17T02:45:08.971Z,3.98
2019-03-17T02:46:13.197Z,3.85
2019-03-17T02:47:17.497Z,4.25
2019-03-17T02:48:21.694Z,3.40
2019-03-17T02:49:25.957Z,3.60
2019-03-17T02:50:30.120Z,3.70
2019-03-17T02:51:34.320Z,3.92
2019-03-17T02:52:38.492Z,3.90
2019-03-17T02:53:42.857Z,3.40
2019-03-17T02:54:46.965Z,4.03
2019-03-17T02:55:51.200Z,4.10
2019-03-17T02:56:55.473Z,3.83
2019-03-17T02:57:59.659Z,3.40
2019-03-17T02:59:03.919Z,3.72
2019-03-17T03:00:09.694Z,4.15
2019-03-17T03:01:13.929Z,3.75
2019-03-17T03:02:18.373Z,3.70
2019-03-17T03:03:22.642Z,3.90
2019-03-17T03:04:26.885Z,4.10
2019-03-17T03:05:31.175Z,3.45
2019-03-17T03:06:35.812Z,3.70
2019-03-17T03:07:40.089Z,3.40
2019-03-17T03:08:44.306Z,3.87
2019-03-17T03:09:48.678Z,4.30
2019-03-17T03:10:53.147Z,3.37
2019-03-17T03:11:57.261Z,3.50
2019-03-17T03:13:01.454Z,4.42
2019-03-17T03:14:05.636Z,3.52
2019-03-17T03:15:10.026Z,3.75
2019-03-17T03:16:14.568Z,3.83
2019-03-17T03:17:18.837Z,3.15
2019-03-17T03:18:22.946Z,3.85
2019-03-17T03:19:27.199Z,3.70
2019-03-17T03:20:31.532Z,3.02
2019-03-17T03:21:35.862Z,3.90
2019-03-17T03:22:40.128Z,3.40
2019-03-17T03:23:44.496Z,3.87
2019-03-17T03:24:48.775Z,3.80
2019-03-17T03:25:53.048Z,3.67
2019-03-17T03:26:57.228Z,3.67
2019-03-17T03:28:01.438Z,3.75
2019-03-17T03:29:05.678Z,3.85
2019-03-17T03:30:10.223Z,3.83
2019-03-17T03:31:15.012Z,3.33
2019-03-17T03:32:19.392Z,3.27
2019-03-17T03:33:23.655Z,3.15
2019-03-17T03:34:27.981Z,3.15
2019-03-17T03:35:32.411Z,3.75
2019-03-17T03:36:37.057Z,3.42
2019-03-17T03:37:41.421Z,3.30
2019-03-17T03:38:45.813Z,3.15
2019-03-17T03:39:50.156Z,4.15
2019-03-17T03:40:54.545Z,3.45
2019-03-17T03:41:58.817Z,3.50
2019-03-17T03:43:03.106Z,3.55
2019-03-17T03:44:07.448Z,3.08
2019-03-17T03:45:11.831Z,3.25
2019-03-17T03:46:16.193Z,3.00
2019-03-17T03:47:20.386Z,3.70
2019-03-17T03:48:24.795Z,3.65
2019-03-17T03:49:29.016Z,3.50
2019-03-17T03:50:33.366Z,4.15
2019-03-17T03:51:37.498Z,3.50
2019-03-17T03:52:41.673Z,3.55
2019-03-17T03:53:45.932Z,3.37
2019-03-17T03:54:50.278Z,3.98
2019-03-17T03:55:54.464Z,4.03
2019-03-17T03:56:58.644Z,3.80
2019-03-17T03:58:03.279Z,2.75
2019-03-17T03:59:08.029Z,3.25
2019-03-17T04:00:12.470Z,3.60
2019-03-17T04:01:16.648Z,3.25
2019-03-17T04:02:20.791Z,3.77
2019-03-17T04:03:36.243Z,2.95
2019-03-17T04:04:40.371Z,3.35
2019-03-17T04:05:44.700Z,3.95
2019-03-17T04:06:49.248Z,3.60
2019-03-17T04:07:53.435Z,3.40
2019-03-17T04:08:57.767Z,3.35
2019-03-17T04:10:01.940Z,3.35
2019-03-17T04:11:06.164Z,4.20
2019-03-17T04:12:10.516Z,3.65
2019-03-17T04:13:14.822Z,4.20
2019-03-17T04:14:19.200Z,3.95
2019-03-17T04:15:23.430Z,3.40
2019-03-17T04:16:27.812Z,3.87
2019-03-17T04:17:32.123Z,3.98
2019-03-17T04:18:36.493Z,3.75
2019-03-17T04:19:40.784Z,3.33
2019-03-17T04:20:45.186Z,3.12
2019-03-17T04:21:49.369Z,3.55
2019-03-17T04:22:53.776Z,3.27
2019-03-17T04:23:58.084Z,3.05
2019-03-17T04:25:02.404Z,3.40
2019-03-17T04:26:06.729Z,3.40
2019-03-17T04:27:10.847Z,3.10
2019-03-17T04:28:15.131Z,2.83
2019-03-17T04:29:19.690Z,3.00
2019-03-17T04:30:23.888Z,3.12
2019-03-17T04:31:28.208Z,2.75
2019-03-17T04:32:32.484Z,3.20
2019-03-17T04:33:36.623Z,3.30
2019-03-17T04:34:40.864Z,3.10
2019-03-17T04:35:45.331Z,2.85
2019-03-17T04:36:49.527Z,2.58
2019-03-17T04:37:53.675Z,2.00
2019-03-17T04:38:58.525Z,2.52
2019-03-17T04:40:02.730Z,2.77
2019-03-17T04:41:06.899Z,2.65
2019-03-17T04:42:11.049Z,2.30
2019-03-17T04:43:15.235Z,2.55
2019-03-17T04:44:21.029Z,3.35
2019-03-17T04:45:25.593Z,2.35
2019-03-17T04:46:29.763Z,2.60
2019-03-17T04:47:34.153Z,2.40
2019-03-17T04:48:38.482Z,2.95
2019-03-17T04:49:42.705Z,2.60
2019-03-17T04:50:47.018Z,2.70
2019-03-17T04:51:51.383Z,2.75
2019-03-17T04:52:55.573Z,2.65
2019-03-17T04:53:59.711Z,2.08
2019-03-17T04:55:03.976Z,2.95
2019-03-17T04:56:08.270Z,2.50
2019-03-17T04:57:12.605Z,2.22
2019-03-17T04:58:16.719Z,2.45
2019-03-17T04:59:21.001Z,2.30
2019-03-17T05:00:25.256Z,1.92
2019-03-17T05:01:29.549Z,1.95
2019-03-17T05:02:34.101Z,2.17
2019-03-17T05:03:38.272Z,2.33
2019-03-17T05:04:42.492Z,3.00
2019-03-17T05:05:46.803Z,2.20
2019-03-17T05:06:52.837Z,2.40
2019-03-17T05:07:57.011Z,2.00
2019-03-17T05:09:01.234Z,2.70
2019-03-17T05:10:06.171Z,2.12
2019-03-17T05:11:10.473Z,2.17
2019-03-17T05:12:14.683Z,2.80
2019-03-17T05:13:18.995Z,2.80
2019-03-17T05:14:23.248Z,2.80
2019-03-17T05:15:27.403Z,2.60
2019-03-17T05:16:31.614Z,2.90
2019-03-17T05:17:35.937Z,2.17
2019-03-17T05:18:40.190Z,2.30
2019-03-17T05:19:44.307Z,2.15
2019-03-17T05:20:48.541Z,2.10
2019-03-17T05:21:54.570Z,2.40
2019-03-17T05:22:58.909Z,2.15
2019-03-17T05:24:04.223Z,2.45
2019-03-17T05:25:08.812Z,2.50
2019-03-17T05:26:13.030Z,2.02
2019-03-17T05:27:17.299Z,1.82
2019-03-17T05:28:23.186Z,2.20
2019-03-17T05:29:27.503Z,2.50
2019-03-17T05:30:31.707Z,2.85
2019-03-17T05:31:35.946Z,2.47
2019-03-17T05:32:40.141Z,2.67
2019-03-17T05:33:44.351Z,2.70
2019-03-17T05:34:48.513Z,3.12
2019-03-17T05:35:54.146Z,2.85
2019-03-17T05:37:06.108Z,2.37
2019-03-17T05:38:04.360Z,1.87
2019-03-17T05:39:08.745Z,2.83
2019-03-17T05:40:12.900Z,2.52
2019-03-17T05:41:17.071Z,2.80
2019-03-17T05:42:21.624Z,2.72
2019-03-17T05:43:25.802Z,2.52
2019-03-17T05:44:30.186Z,3.15
2019-03-17T05:45:34.359Z,3.20
2019-03-17T05:46:38.557Z,3.70
2019-03-17T05:47:42.922Z,3.67
2019-03-17T05:48:47.218Z,3.27
2019-03-17T05:49:51.485Z,3.20
2019-03-17T05:50:55.811Z,3.42
2019-03-17T05:52:00.112Z,3.30
2019-03-17T05:53:04.307Z,3.30
2019-03-17T05:54:08.542Z,3.72
2019-03-17T05:55:12.695Z,4.12
2019-03-17T05:56:16.913Z,3.58
2019-03-17T05:57:21.213Z,4.10
2019-03-17T05:58:25.353Z,3.70
2019-03-17T05:59:29.499Z,3.87
2019-03-17T06:00:33.801Z,4.22
2019-03-17T06:01:38.051Z,3.00
2019-03-17T06:02:42.190Z,3.35
2019-03-17T06:03:46.552Z,3.37
2019-03-17T06:04:50.853Z,3.20
2019-03-17T06:05:55.111Z,3.10
2019-03-17T06:06:59.275Z,3.30
2019-03-17T06:08:03.579Z,2.95
2019-03-17T06:09:08.164Z,2.60
2019-03-17T06:10:12.301Z,3.30
2019-03-17T06:11:16.607Z,3.10
2019-03-17T06:12:20.965Z,2.60
2019-03-17T06:13:25.282Z,2.80
2019-03-17T06:14:29.475Z,2.70
2019-03-17T06:15:33.758Z,3.10
2019-03-17T06:16:37.983Z,3.15
2019-03-17T06:17:42.212Z,2.60
2019-03-17T06:18:46.377Z,3.00
2019-03-17T06:19:50.613Z,2.90
2019-03-17T06:20:54.989Z,3.05
2019-03-17T06:22:00.448Z,2.67
2019-03-17T06:23:04.968Z,2.90
2019-03-17T06:24:09.182Z,2.98
2019-03-17T06:25:13.412Z,2.65
2019-03-17T06:26:17.599Z,2.30
2019-03-17T06:27:21.963Z,2.85
2019-03-17T06:28:26.181Z,2.40
2019-03-17T06:29:30.419Z,2.52
2019-03-17T06:30:34.691Z,2.60
2019-03-17T06:31:38.943Z,2.50
2019-03-17T06:32:43.213Z,2.92
2019-03-17T06:33:47.394Z,2.08
2019-03-17T06:34:51.611Z,2.70
2019-03-17T06:35:56.000Z,2.40
2019-03-17T06:37:00.232Z,2.75
2019-03-17T06:38:04.537Z,3.10
2019-03-17T06:39:09.105Z,2.70
2019-03-17T06:40:13.469Z,2.90
2019-03-17T06:41:18.856Z,2.83
2019-03-17T06:42:23.239Z,2.62
2019-03-17T06:43:27.673Z,2.80
2019-03-17T06:44:31.843Z,2.92
2019-03-17T06:45:36.120Z,2.75
2019-03-17T06:46:40.362Z,3.15
2019-03-17T06:47:44.614Z,2.15
2019-03-17T06:48:48.869Z,2.52
2019-03-17T06:49:53.201Z,2.70
2019-03-17T06:50:57.411Z,2.60
2019-03-17T06:52:01.579Z,3.20
2019-03-17T06:53:05.842Z,3.08
2019-03-17T06:54:09.991Z,2.22
2019-03-17T06:55:14.267Z,2.20
2019-03-17T06:56:18.587Z,2.35
2019-03-17T06:57:23.155Z,2.80
2019-03-17T06:58:27.269Z,2.70
2019-03-17T06:59:31.501Z,2.87
2019-03-17T07:00:35.686Z,2.40
2019-03-17T07:01:39.919Z,2.50
2019-03-17T07:02:44.092Z,2.70
2019-03-17T07:03:48.421Z,2.60
2019-03-17T07:04:54.112Z,3.33
2019-03-17T07:05:58.451Z,3.35
2019-03-17T07:07:02.759Z,2.52
2019-03-17T07:08:06.902Z,3.60
2019-03-17T07:09:11.126Z,4.08
2019-03-17T07:10:15.270Z,8.15
2019-03-17T07:11:19.591Z,7.25
2019-03-17T07:12:23.785Z,4.75
2019-03-17T07:13:28.060Z,4.60
2019-03-17T07:14:32.364Z,5.10
2019-03-17T07:15:36.713Z,5.47
2019-03-17T07:16:40.845Z,3.90
2019-03-17T07:17:45.185Z,3.95
2019-03-17T07:18:50.779Z,4.35
2019-03-17T07:19:55.108Z,4.42
2019-03-17T07:20:59.387Z,5.08
2019-03-17T07:22:03.708Z,4.40
2019-03-17T07:23:07.829Z,3.83
2019-03-17T07:24:12.117Z,3.75
2019-03-17T07:25:16.310Z,3.58
2019-03-17T07:26:20.497Z,4.58
2019-03-17T07:27:24.721Z,4.30
2019-03-17T07:28:28.874Z,3.67
2019-03-17T07:29:33.018Z,5.00
2019-03-17T07:30:37.284Z,4.35
2019-03-17T07:31:41.515Z,4.20
2019-03-17T07:32:45.781Z,4.00
2019-03-17T07:33:50.121Z,4.22
2019-03-17T07:34:54.466Z,4.30
2019-03-17T07:35:58.780Z,3.55
2019-03-17T07:37:03.065Z,3.40
2019-03-17T07:38:07.344Z,3.37
2019-03-17T07:39:12.436Z,3.55
2019-03-17T07:40:16.917Z,4.12
2019-03-17T07:41:21.199Z,4.25
2019-03-17T07:42:25.447Z,5.00
2019-03-17T07:43:29.803Z,4.75
2019-03-17T07:44:34.149Z,5.05
2019-03-17T07:45:38.589Z,6.72
2019-03-17T07:46:42.856Z,5.67
2019-03-17T07:47:47.078Z,3.87
2019-03-17T07:48:51.407Z,4.30
2019-03-17T07:49:55.775Z,4.08
2019-03-17T07:51:00.005Z,3.60
2019-03-17T07:52:04.554Z,3.42
2019-03-17T07:53:08.661Z,3.42
2019-03-17T07:54:12.862Z,3.10
2019-03-17T07:55:17.009Z,2.80
2019-03-17T07:56:21.493Z,2.47
2019-03-17T07:57:25.770Z,3.85
2019-03-17T07:58:29.996Z,3.30
2019-03-17T07:59:34.289Z,3.30
2019-03-17T08:00:38.551Z,3.10
2019-03-17T08:01:42.739Z,4.20
2019-03-17T08:02:47.015Z,4.20
2019-03-17T08:04:02.956Z,3.30
2019-03-17T08:05:07.723Z,3.40
2019-03-17T08:06:12.012Z,3.40
2019-03-17T08:07:16.272Z,3.42
2019-03-17T08:08:20.616Z,3.30
2019-03-17T08:09:24.777Z,3.67
2019-03-17T08:10:28.951Z,3.70
2019-03-17T08:11:33.183Z,3.50
2019-03-17T08:12:37.341Z,4.17
2019-03-17T08:13:41.543Z,3.92
2019-03-17T08:14:45.854Z,3.87
2019-03-17T08:15:50.126Z,4.30
2019-03-17T08:16:54.393Z,3.77
2019-03-17T08:17:58.630Z,3.42
2019-03-17T08:19:02.804Z,3.60
2019-03-17T08:20:07.437Z,3.92
2019-03-17T08:21:11.725Z,3.75
2019-03-17T08:22:16.199Z,3.87
2019-03-17T08:23:20.451Z,3.40
2019-03-17T08:24:24.693Z,3.50
2019-03-17T08:25:28.829Z,3.65
2019-03-17T08:26:32.977Z,3.47
2019-03-17T08:27:37.287Z,3.33
2019-03-17T08:28:41.625Z,3.50
2019-03-17T08:29:45.987Z,3.87
2019-03-17T08:30:53.504Z,3.98
2019-03-17T08:31:56.741Z,4.22
2019-03-17T08:33:00.961Z,4.45
2019-03-17T08:34:05.289Z,4.92
2019-03-17T08:35:09.880Z,4.25
2019-03-17T08:36:14.230Z,4.00
2019-03-17T08:37:18.443Z,4.00
2019-03-17T08:38:22.756Z,3.80
2019-03-17T08:39:26.942Z,3.80
2019-03-17T08:40:31.199Z,4.33
2019-03-17T08:41:37.553Z,3.33
2019-03-17T08:42:41.287Z,3.75
2019-03-17T08:43:54.279Z,3.60
2019-03-17T08:44:51.678Z,3.33
2019-03-17T08:45:55.914Z,4.00
2019-03-17T08:47:00.085Z,3.98
2019-03-17T08:48:04.221Z,3.67
2019-03-17T08:49:08.367Z,4.35
2019-03-17T08:50:12.628Z,3.87
2019-03-17T08:51:17.035Z,4.05
2019-03-17T08:52:21.300Z,3.92
2019-03-17T08:53:25.504Z,3.98
2019-03-17T08:54:29.679Z,3.50
2019-03-17T08:55:33.825Z,3.85
2019-03-17T08:56:38.026Z,3.75
2019-03-17T08:57:42.175Z,4.22
2019-03-17T08:58:46.293Z,4.25
2019-03-17T08:59:59.420Z,4.83
2019-03-17T09:01:03.588Z,4.30
2019-03-17T09:02:07.871Z,3.58
2019-03-17T09:03:12.006Z,4.40
2019-03-17T09:04:16.309Z,4.20
2019-03-17T09:05:20.455Z,4.28
2019-03-17T09:06:25.031Z,4.75
2019-03-17T09:07:29.495Z,4.55
2019-03-17T09:08:35.214Z,3.50
2019-03-17T09:09:40.042Z,3.00
2019-03-17T09:10:44.327Z,3.50
2019-03-17T09:11:48.922Z,3.10
2019-03-17T09:12:53.109Z,3.25
2019-03-17T09:13:57.223Z,3.12
2019-03-17T09:15:01.387Z,2.80
2019-03-17T09:16:05.557Z,3.80
2019-03-17T09:17:14.689Z,2.95
2019-03-17T09:18:15.950Z,2.98
2019-03-17T09:19:20.091Z,3.45
2019-03-17T09:20:24.342Z,3.50
2019-03-17T09:21:28.617Z,3.00
2019-03-17T09:22:32.879Z,2.70
2019-03-17T09:23:37.221Z,2.40
2019-03-17T09:24:41.448Z,2.92
2019-03-17T09:25:45.803Z,2.17
2019-03-17T09:26:49.958Z,2.70
2019-03-17T09:27:54.273Z,2.52
2019-03-17T09:28:58.500Z,1.90
2019-03-17T09:30:02.659Z,2.80
2019-03-17T09:31:07.594Z,2.30
2019-03-17T09:32:12.022Z,2.58
2019-03-17T09:33:16.216Z,1.90
2019-03-17T09:34:20.474Z,2.30
2019-03-17T09:35:24.823Z,1.85
2019-03-17T09:36:29.136Z,2.15
2019-03-17T09:37:33.440Z,1.90
2019-03-17T09:38:46.721Z,2.10
2019-03-17T09:39:43.661Z,2.27
2019-03-17T09:40:47.973Z,2.60
2019-03-17T09:41:52.259Z,1.90
2019-03-17T09:42:56.418Z,2.10
2019-03-17T09:44:00.637Z,1.62
2019-03-17T09:45:05.671Z,1.85
2019-03-17T09:46:09.885Z,2.05
2019-03-17T09:47:14.042Z,2.05
2019-03-17T09:48:18.304Z,1.75
2019-03-17T09:49:22.868Z,2.22
2019-03-17T09:50:27.111Z,1.67
2019-03-17T09:51:31.367Z,2.00
2019-03-17T09:52:35.677Z,1.80
2019-03-17T09:53:39.857Z,2.05
2019-03-17T09:54:43.983Z,2.00
2019-03-17T09:55:48.149Z,2.30
2019-03-17T09:56:52.545Z,2.02
2019-03-17T09:57:56.747Z,2.02
2019-03-17T09:59:00.949Z,1.75
2019-03-17T10:00:05.782Z,2.70
2019-03-17T10:01:09.975Z,2.20
2019-03-17T10:02:14.451Z,2.70
2019-03-17T10:03:18.684Z,2.20
2019-03-17T10:04:23.032Z,2.47
2019-03-17T10:05:27.244Z,2.25
2019-03-17T10:06:31.397Z,1.92
2019-03-17T10:07:35.886Z,2.90
2019-03-17T10:08:40.112Z,2.00
2019-03-17T10:09:44.316Z,1.77
2019-03-17T10:10:48.639Z,1.57
2019-03-17T10:11:52.881Z,1.90
2019-03-17T10:12:57.219Z,1.80
2019-03-17T10:14:01.391Z,1.70
2019-03-17T10:15:06.815Z,1.70
2019-03-17T10:16:11.083Z,1.70
2019-03-17T10:17:15.327Z,1.60
2019-03-17T10:18:19.522Z,1.50
2019-03-17T10:19:23.805Z,1.40
2019-03-17T10:20:27.999Z,1.47
2019-03-17T10:21:32.329Z,1.62
2019-03-17T10:22:39.646Z,1.62
2019-03-17T10:23:42.770Z,1.90
2019-03-17T10:24:47.091Z,1.62
2019-03-17T10:25:51.288Z,1.45
2019-03-17T10:26:55.562Z,1.50
2019-03-17T10:27:59.827Z,1.40
2019-03-17T10:29:04.047Z,1.57
2019-03-17T10:30:10.884Z,1.60
2019-03-17T10:31:15.098Z,1.72
2019-03-17T10:32:19.275Z,1.72
2019-03-17T10:33:23.641Z,1.42
2019-03-17T10:34:27.927Z,2.00
2019-03-17T10:35:32.241Z,1.67
2019-03-17T10:36:36.509Z,2.30
2019-03-17T10:37:41.194Z,2.05
2019-03-17T10:38:45.434Z,2.30
2019-03-17T10:39:49.664Z,2.15
2019-03-17T10:40:53.789Z,1.90
2019-03-17T10:41:58.026Z,1.25
2019-03-17T10:43:02.153Z,1.00
2019-03-17T10:44:06.423Z,1.00
2019-03-17T10:45:10.896Z,0.90
2019-03-17T10:46:15.075Z,0.68
2019-03-17T10:47:19.262Z,0.80
2019-03-17T10:48:23.436Z,0.90
2019-03-17T10:49:27.675Z,1.17
2019-03-17T10:50:32.279Z,0.90
2019-03-17T10:51:36.466Z,1.10
2019-03-17T10:52:40.681Z,1.00
2019-03-17T10:53:44.884Z,0.93
2019-03-17T10:54:49.036Z,0.90
2019-03-17T10:55:53.279Z,1.37
2019-03-17T10:56:57.469Z,0.70
2019-03-17T10:58:02.302Z,1.55
2019-03-17T10:59:08.185Z,1.10
2019-03-17T11:00:14.155Z,1.20
2019-03-17T11:01:18.387Z,1.00
2019-03-17T11:02:22.575Z,0.95
2019-03-17T11:03:26.865Z,0.98
2019-03-17T11:04:31.251Z,0.98
2019-03-17T11:05:35.638Z,1.00
2019-03-17T11:06:40.029Z,1.10
2019-03-17T11:07:44.318Z,1.30
2019-03-17T11:08:48.611Z,0.90
2019-03-17T11:09:55.469Z,1.20
2019-03-17T11:10:59.701Z,1.00
2019-03-17T11:12:03.865Z,1.10
2019-03-17T11:13:08.221Z,1.10
2019-03-17T11:14:12.466Z,1.25
2019-03-17T11:15:16.787Z,0.90
2019-03-17T11:16:21.511Z,1.02
2019-03-17T11:17:25.721Z,0.80
2019-03-17T11:18:30.026Z,1.10
2019-03-17T11:19:34.151Z,1.10
2019-03-17T11:20:38.591Z,1.10
2019-03-17T11:21:42.785Z,1.12
2019-03-17T11:22:47.023Z,0.82
2019-03-17T11:23:51.179Z,1.00
2019-03-17T11:24:55.440Z,1.15
2019-03-17T11:25:59.890Z,1.52
2019-03-17T11:27:06.950Z,0.70
2019-03-17T11:28:11.405Z,0.90
2019-03-17T11:29:15.638Z,0.98
2019-03-17T11:30:20.343Z,0.88
2019-03-17T11:31:24.606Z,1.60
2019-03-17T11:32:28.895Z,1.32
2019-03-17T11:33:33.907Z,1.10
2019-03-17T11:34:41.219Z,0.90
2019-03-17T11:35:45.779Z,1.07
2019-03-17T11:36:50.209Z,1.20
2019-03-17T11:37:54.433Z,0.98
2019-03-17T11:38:58.810Z,0.90
2019-03-17T11:40:03.010Z,1.00
2019-03-17T11:41:07.328Z,1.20
2019-03-17T11:42:12.679Z,1.02
2019-03-17T11:43:17.435Z,1.20
2019-03-17T11:44:22.036Z,1.65
2019-03-17T11:45:27.134Z,2.30
2019-03-17T11:46:31.807Z,1.57
2019-03-17T11:47:36.009Z,1.15
2019-03-17T11:48:40.335Z,1.40
2019-03-17T11:49:46.146Z,1.52
2019-03-17T11:50:50.821Z,1.90
2019-03-17T11:51:55.079Z,1.57
2019-03-17T11:52:59.295Z,1.27
2019-03-17T11:54:03.390Z,1.25
2019-03-17T11:55:07.903Z,1.40
2019-03-17T11:56:12.201Z,1.25
2019-03-17T11:57:17.423Z,1.22
2019-03-17T11:58:21.735Z,1.10
2019-03-17T11:59:25.966Z,1.40
2019-03-17T12:00:30.301Z,1.02
2019-03-17T12:01:34.729Z,1.10
2019-03-17T12:02:38.837Z,1.10
2019-03-17T12:03:43.075Z,1.20
2019-03-17T12:04:47.347Z,1.10
2019-03-17T12:05:51.684Z,1.17
2019-03-17T12:06:55.992Z,0.93
2019-03-17T12:08:00.616Z,1.00
2019-03-17T12:09:07.144Z,1.15
2019-03-17T12:10:13.128Z,1.10
2019-03-17T12:11:17.336Z,1.42
2019-03-17T12:12:22.101Z,1.10
2019-03-17T12:13:26.425Z,1.12
2019-03-17T12:14:30.615Z,1.12
2019-03-17T12:15:34.918Z,1.25
2019-03-17T12:16:39.129Z,1.20
2019-03-17T12:17:43.515Z,1.50
2019-03-17T12:18:47.738Z,1.20
2019-03-17T12:19:51.913Z,1.00
2019-03-17T12:20:56.156Z,1.37
2019-03-17T12:22:08.957Z,1.20
2019-03-17T12:23:06.369Z,1.10
2019-03-17T12:24:10.789Z,1.27
2019-03-17T12:25:15.081Z,1.65
2019-03-17T12:26:19.375Z,1.10
2019-03-17T12:27:23.793Z,1.30
2019-03-17T12:28:28.067Z,1.62
2019-03-17T12:29:32.337Z,1.32
2019-03-17T12:30:36.578Z,1.00
2019-03-17T12:31:41.191Z,1.30
2019-03-17T12:32:45.671Z,1.00
2019-03-17T12:33:50.197Z,1.20
2019-03-17T12:34:54.489Z,1.10
2019-03-17T12:35:58.774Z,1.20
2019-03-17T12:37:03.071Z,1.30
2019-03-17T12:38:07.334Z,1.20
2019-03-17T12:39:11.713Z,1.10
2019-03-17T12:40:15.947Z,1.10
2019-03-17T12:41:20.150Z,1.30
2019-03-17T12:42:24.437Z,1.15
2019-03-17T12:43:29.005Z,1.12
2019-03-17T12:44:33.287Z,1.42
2019-03-17T12:45:37.503Z,1.37
2019-03-17T12:46:41.673Z,0.98
2019-03-17T12:47:45.814Z,1.30
2019-03-17T12:48:50.158Z,0.85
2019-03-17T12:49:54.269Z,1.20
2019-03-17T12:50:58.477Z,1.20
2019-03-17T12:52:02.749Z,1.20
2019-03-17T12:53:08.033Z,0.95
2019-03-17T12:54:12.468Z,1.30
2019-03-17T12:55:16.741Z,1.10
2019-03-17T12:56:21.061Z,1.30
2019-03-17T12:57:25.201Z,1.10
2019-03-17T12:58:29.445Z,0.90
2019-03-17T12:59:33.751Z,1.17
2019-03-17T13:00:38.385Z,1.20
2019-03-17T13:01:42.679Z,1.30
2019-03-17T13:02:46.990Z,1.17
2019-03-17T13:03:51.191Z,1.27
2019-03-17T13:04:55.531Z,1.10
2019-03-17T13:05:59.769Z,0.98
2019-03-17T13:07:03.917Z,1.10
2019-03-17T13:08:08.221Z,1.15
2019-03-17T13:09:12.389Z,1.40
2019-03-17T13:10:16.895Z,1.40
2019-03-17T13:11:21.401Z,1.25
2019-03-17T13:12:25.672Z,1.35
2019-03-17T13:13:29.943Z,1.27
2019-03-17T13:14:34.231Z,1.20
2019-03-17T13:15:38.477Z,1.10
2019-03-17T13:16:42.791Z,1.00
2019-03-17T13:17:47.088Z,0.82
2019-03-17T13:18:51.384Z,1.20
2019-03-17T13:19:55.657Z,1.30
2019-03-17T13:21:00.012Z,1.12
2019-03-17T13:22:04.265Z,1.00
2019-03-17T13:23:08.552Z,1.10
2019-03-17T13:24:12.764Z,1.20
2019-03-17T13:25:17.106Z,1.20
2019-03-17T13:26:21.261Z,1.20
2019-03-17T13:27:25.639Z,1.20
2019-03-17T13:28:29.859Z,1.00
2019-03-17T13:29:34.140Z,1.10
2019-03-17T13:30:38.373Z,1.17
2019-03-17T13:31:42.702Z,1.22
2019-03-17T13:32:46.948Z,1.15
2019-03-17T13:33:51.805Z,1.07
2019-03-17T13:34:58.014Z,1.50
2019-03-17T13:36:02.270Z,1.10
2019-03-17T13:37:06.597Z,1.10
2019-03-17T13:38:10.736Z,1.25
2019-03-17T13:39:15.053Z,1.02
2019-03-17T13:40:28.841Z,1.05
2019-03-17T13:41:25.318Z,1.20
2019-03-17T13:42:29.591Z,0.90
2019-03-17T13:43:33.894Z,1.20
2019-03-17T13:44:38.097Z,1.50
2019-03-17T13:45:42.255Z,1.00
2019-03-17T13:46:46.583Z,1.45
2019-03-17T13:47:52.876Z,1.30
2019-03-17T13:48:56.747Z,1.17
2019-03-17T13:50:01.033Z,1.20
2019-03-17T13:51:05.402Z,0.90
2019-03-17T13:52:09.573Z,1.10
2019-03-17T13:53:13.949Z,1.32
2019-03-17T13:54:18.091Z,1.60
2019-03-17T13:55:22.565Z,1.37
2019-03-17T13:56:26.877Z,1.20
2019-03-17T13:57:31.111Z,1.10
2019-03-17T13:58:35.261Z,1.35
2019-03-17T13:59:39.445Z,1.20
2019-03-17T14:00:43.715Z,1.10
2019-03-17T14:01:47.932Z,1.45
2019-03-17T14:02:52.127Z,1.30
2019-03-17T14:03:56.499Z,1.10
2019-03-17T14:05:00.673Z,1.50
2019-03-17T14:06:04.987Z,0.93
2019-03-17T14:07:09.267Z,1.07
2019-03-17T14:08:13.600Z,1.27
2019-03-17T14:09:17.860Z,1.10
2019-03-17T14:10:22.101Z,1.77
2019-03-17T14:11:26.247Z,1.30
2019-03-17T14:12:30.534Z,2.00
2019-03-17T14:13:34.788Z,1.25
2019-03-17T14:14:39.387Z,1.30
2019-03-17T14:15:43.653Z,1.70
2019-03-17T14:16:47.895Z,1.70
2019-03-17T14:17:52.234Z,1.25
2019-03-17T14:18:56.371Z,1.45